sensor_id;sensor_type;location;lat;lon;timestamp;temperature;humidity
26707;DHT22;14319;49.422;10.934;2023-12-20T00:00:13;5.90;95.20
26707;DHT22;14319;49.422;10.934;2023-12-20T00:02:14;5.80;95.40
26707;DHT22;14319;49.422;10.934;2023-12-20T00:04:15;5.80;95.70
26707;DHT22;14319;49.422;10.934;2023-12-20T00:06:16;5.80;95.90
26707;DHT22;14319;49.422;10.934;2023-12-20T00:08:16;5.80;96.30
26707;DHT22;14319;49.422;10.934;2023-12-20T00:10:17;5.80;96.40
26707;DHT22;14319;49.422;10.934;2023-12-20T00:12:17;5.80;96.70
26707;DHT22;14319;49.422;10.934;2023-12-20T00:14:18;5.80;96.80
26707;DHT22;14319;49.422;10.934;2023-12-20T00:16:19;5.80;97.20
26707;DHT22;14319;49.422;10.934;2023-12-20T00:18:19;5.70;97.80
26707;DHT22;14319;49.422;10.934;2023-12-20T00:20:20;5.70;98.20
26707;DHT22;14319;49.422;10.934;2023-12-20T00:22:20;5.60;98.80
26707;DHT22;14319;49.422;10.934;2023-12-20T00:24:21;5.60;99.20
26707;DHT22;14319;49.422;10.934;2023-12-20T00:26:21;5.70;99.70
26707;DHT22;14319;49.422;10.934;2023-12-20T00:28:22;5.70;99.60
26707;DHT22;14319;49.422;10.934;2023-12-20T00:30:23;5.60;99.60
26707;DHT22;14319;49.422;10.934;2023-12-20T00:32:23;5.60;99.70
26707;DHT22;14319;49.422;10.934;2023-12-20T00:34:24;5.70;99.80
26707;DHT22;14319;49.422;10.934;2023-12-20T00:36:24;5.70;99.80
26707;DHT22;14319;49.422;10.934;2023-12-20T00:38:25;5.70;99.50
26707;DHT22;14319;49.422;10.934;2023-12-20T00:40:26;5.70;99.90
26707;DHT22;14319;49.422;10.934;2023-12-20T00:42:26;5.60;99.90
26707;DHT22;14319;49.422;10.934;2023-12-20T00:44:27;5.60;99.90
26707;DHT22;14319;49.422;10.934;2023-12-20T00:46:27;5.70;99.90
26707;DHT22;14319;49.422;10.934;2023-12-20T00:48:28;5.60;99.90
26707;DHT22;14319;49.422;10.934;2023-12-20T00:50:30;5.60;99.90
26707;DHT22;14319;49.422;10.934;2023-12-20T00:52:31;5.60;99.90
26707;DHT22;14319;49.422;10.934;2023-12-20T00:54:31;5.50;99.90
26707;DHT22;14319;49.422;10.934;2023-12-20T00:56:32;5.60;99.90
26707;DHT22;14319;49.422;10.934;2023-12-20T00:58:32;5.70;99.90
26707;DHT22;14319;49.422;10.934;2023-12-20T01:00:33;5.60;99.90
26707;DHT22;14319;49.422;10.934;2023-12-20T01:02:33;5.60;99.90
26707;DHT22;14319;49.422;10.934;2023-12-20T01:04:34;5.60;99.90
26707;DHT22;14319;49.422;10.934;2023-12-20T01:06:35;5.60;99.90
26707;DHT22;14319;49.422;10.934;2023-12-20T01:08:35;5.60;99.90
26707;DHT22;14319;49.422;10.934;2023-12-20T01:10:37;5.50;99.90
26707;DHT22;14319;49.422;10.934;2023-12-20T01:12:38;5.50;99.90
26707;DHT22;14319;49.422;10.934;2023-12-20T01:14:38;5.50;99.90
26707;DHT22;14319;49.422;10.934;2023-12-20T01:16:39;5.50;99.90
26707;DHT22;14319;49.422;10.934;2023-12-20T01:18:40;5.50;99.90
26707;DHT22;14319;49.422;10.934;2023-12-20T01:20:41;5.50;99.90
26707;DHT22;14319;49.422;10.934;2023-12-20T01:22:43;5.60;99.90
26707;DHT22;14319;49.422;10.934;2023-12-20T01:24:46;5.50;99.90
26707;DHT22;14319;49.422;10.934;2023-12-20T01:26:46;5.50;99.90
26707;DHT22;14319;49.422;10.934;2023-12-20T01:28:47;5.50;99.90
26707;DHT22;14319;49.422;10.934;2023-12-20T01:30:48;5.50;99.90
26707;DHT22;14319;49.422;10.934;2023-12-20T01:32:48;5.50;99.90
26707;DHT22;14319;49.422;10.934;2023-12-20T01:34:49;5.50;99.90
26707;DHT22;14319;49.422;10.934;2023-12-20T01:36:50;5.60;99.90
26707;DHT22;14319;49.422;10.934;2023-12-20T01:38:50;5.60;99.90
26707;DHT22;14319;49.422;10.934;2023-12-20T01:40:51;5.60;99.90
26707;DHT22;14319;49.422;10.934;2023-12-20T01:43:01;5.60;99.90
26707;DHT22;14319;49.422;10.934;2023-12-20T01:45:02;5.50;99.90
26707;DHT22;14319;49.422;10.934;2023-12-20T01:47:03;5.50;99.90
26707;DHT22;14319;49.422;10.934;2023-12-20T01:49:04;5.50;99.90
26707;DHT22;14319;49.422;10.934;2023-12-20T01:51:05;5.50;99.90
26707;DHT22;14319;49.422;10.934;2023-12-20T01:53:07;5.50;99.90
26707;DHT22;14319;49.422;10.934;2023-12-20T01:55:09;5.40;99.90
26707;DHT22;14319;49.422;10.934;2023-12-20T01:57:13;5.40;99.90
26707;DHT22;14319;49.422;10.934;2023-12-20T01:59:14;5.40;99.90
26707;DHT22;14319;49.422;10.934;2023-12-20T02:01:15;5.60;99.90
26707;DHT22;14319;49.422;10.934;2023-12-20T02:03:17;5.40;99.90
26707;DHT22;14319;49.422;10.934;2023-12-20T02:05:18;5.30;99.90
26707;DHT22;14319;49.422;10.934;2023-12-20T02:07:19;5.30;99.90
26707;DHT22;14319;49.422;10.934;2023-12-20T02:09:22;5.30;99.90
26707;DHT22;14319;49.422;10.934;2023-12-20T02:11:23;5.30;99.90
26707;DHT22;14319;49.422;10.934;2023-12-20T02:13:23;5.20;99.90
26707;DHT22;14319;49.422;10.934;2023-12-20T02:15:24;5.20;99.90
26707;DHT22;14319;49.422;10.934;2023-12-20T02:17:25;5.10;99.90
26707;DHT22;14319;49.422;10.934;2023-12-20T02:19:26;5.20;99.90
26707;DHT22;14319;49.422;10.934;2023-12-20T02:21:32;5.10;99.90
26707;DHT22;14319;49.422;10.934;2023-12-20T02:23:34;5.10;99.90
26707;DHT22;14319;49.422;10.934;2023-12-20T02:25:35;5.20;99.90
26707;DHT22;14319;49.422;10.934;2023-12-20T02:27:36;5.00;99.90
26707;DHT22;14319;49.422;10.934;2023-12-20T02:29:37;5.00;99.90
26707;DHT22;14319;49.422;10.934;2023-12-20T02:31:37;5.00;99.90
26707;DHT22;14319;49.422;10.934;2023-12-20T02:33:38;5.10;99.90
26707;DHT22;14319;49.422;10.934;2023-12-20T02:35:39;5.00;99.90
26707;DHT22;14319;49.422;10.934;2023-12-20T02:37:40;5.00;99.90
26707;DHT22;14319;49.422;10.934;2023-12-20T02:39:41;4.80;99.90
26707;DHT22;14319;49.422;10.934;2023-12-20T02:41:41;4.80;99.90
26707;DHT22;14319;49.422;10.934;2023-12-20T02:43:42;4.70;99.90
26707;DHT22;14319;49.422;10.934;2023-12-20T02:45:42;4.70;99.90
26707;DHT22;14319;49.422;10.934;2023-12-20T02:47:43;4.70;99.90
26707;DHT22;14319;49.422;10.934;2023-12-20T02:49:43;4.70;99.90
26707;DHT22;14319;49.422;10.934;2023-12-20T02:51:44;4.70;99.90
26707;DHT22;14319;49.422;10.934;2023-12-20T02:53:45;4.70;99.90
26707;DHT22;14319;49.422;10.934;2023-12-20T02:55:45;4.70;99.90
26707;DHT22;14319;49.422;10.934;2023-12-20T02:57:46;4.70;99.90
26707;DHT22;14319;49.422;10.934;2023-12-20T02:59:46;4.70;99.90
26707;DHT22;14319;49.422;10.934;2023-12-20T03:01:47;4.70;99.90
26707;DHT22;14319;49.422;10.934;2023-12-20T03:03:47;4.60;99.90
26707;DHT22;14319;49.422;10.934;2023-12-20T03:05:48;4.60;99.90
26707;DHT22;14319;49.422;10.934;2023-12-20T03:07:48;4.50;99.90
26707;DHT22;14319;49.422;10.934;2023-12-20T03:09:49;4.50;99.90
26707;DHT22;14319;49.422;10.934;2023-12-20T03:11:49;4.50;99.90
26707;DHT22;14319;49.422;10.934;2023-12-20T03:13:50;4.40;99.90
26707;DHT22;14319;49.422;10.934;2023-12-20T03:15:50;4.50;99.90
26707;DHT22;14319;49.422;10.934;2023-12-20T03:17:51;4.40;99.90
26707;DHT22;14319;49.422;10.934;2023-12-20T03:19:51;4.40;99.90
26707;DHT22;14319;49.422;10.934;2023-12-20T03:21:52;4.40;99.90
26707;DHT22;14319;49.422;10.934;2023-12-20T03:23:54;4.30;99.90
26707;DHT22;14319;49.422;10.934;2023-12-20T03:25:54;4.30;99.90
26707;DHT22;14319;49.422;10.934;2023-12-20T03:27:55;4.30;99.90
26707;DHT22;14319;49.422;10.934;2023-12-20T03:29:56;4.30;99.90
26707;DHT22;14319;49.422;10.934;2023-12-20T03:31:56;4.30;99.90
26707;DHT22;14319;49.422;10.934;2023-12-20T03:33:57;4.40;99.90
26707;DHT22;14319;49.422;10.934;2023-12-20T03:35:57;4.40;99.90
26707;DHT22;14319;49.422;10.934;2023-12-20T03:37:58;4.40;99.90
26707;DHT22;14319;49.422;10.934;2023-12-20T03:40:00;4.30;99.90
26707;DHT22;14319;49.422;10.934;2023-12-20T03:42:04;4.40;99.90
26707;DHT22;14319;49.422;10.934;2023-12-20T03:44:04;4.40;99.90
26707;DHT22;14319;49.422;10.934;2023-12-20T03:46:08;4.40;99.90
26707;DHT22;14319;49.422;10.934;2023-12-20T03:48:09;4.40;99.90
26707;DHT22;14319;49.422;10.934;2023-12-20T03:50:09;4.30;99.90
26707;DHT22;14319;49.422;10.934;2023-12-20T03:52:10;4.30;99.90
26707;DHT22;14319;49.422;10.934;2023-12-20T03:54:10;4.30;99.90
26707;DHT22;14319;49.422;10.934;2023-12-20T03:56:11;4.30;99.90
26707;DHT22;14319;49.422;10.934;2023-12-20T03:58:12;4.30;99.90
26707;DHT22;14319;49.422;10.934;2023-12-20T04:00:12;4.30;99.90
26707;DHT22;14319;49.422;10.934;2023-12-20T04:02:13;4.30;99.90
26707;DHT22;14319;49.422;10.934;2023-12-20T04:04:14;4.30;99.90
26707;DHT22;14319;49.422;10.934;2023-12-20T04:06:18;4.30;99.90
26707;DHT22;14319;49.422;10.934;2023-12-20T04:08:18;4.30;99.90
26707;DHT22;14319;49.422;10.934;2023-12-20T04:10:19;4.40;99.90
26707;DHT22;14319;49.422;10.934;2023-12-20T04:12:20;4.20;99.90
26707;DHT22;14319;49.422;10.934;2023-12-20T04:14:20;4.20;99.90
26707;DHT22;14319;49.422;10.934;2023-12-20T04:16:21;4.20;99.90
26707;DHT22;14319;49.422;10.934;2023-12-20T04:18:21;4.20;99.90
26707;DHT22;14319;49.422;10.934;2023-12-20T04:20:22;4.20;99.90
26707;DHT22;14319;49.422;10.934;2023-12-20T04:22:22;4.20;99.90
26707;DHT22;14319;49.422;10.934;2023-12-20T04:24:23;4.30;99.90
26707;DHT22;14319;49.422;10.934;2023-12-20T04:26:24;4.30;99.90
26707;DHT22;14319;49.422;10.934;2023-12-20T04:28:24;4.30;99.90
26707;DHT22;14319;49.422;10.934;2023-12-20T04:30:25;4.30;99.90
26707;DHT22;14319;49.422;10.934;2023-12-20T04:32:26;4.30;99.90
26707;DHT22;14319;49.422;10.934;2023-12-20T04:34:26;4.20;99.90
26707;DHT22;14319;49.422;10.934;2023-12-20T04:36:27;4.20;99.90
26707;DHT22;14319;49.422;10.934;2023-12-20T04:38:30;4.20;99.90
26707;DHT22;14319;49.422;10.934;2023-12-20T04:40:30;4.20;99.90
26707;DHT22;14319;49.422;10.934;2023-12-20T04:42:31;4.20;99.90
26707;DHT22;14319;49.422;10.934;2023-12-20T04:44:32;4.20;99.90
26707;DHT22;14319;49.422;10.934;2023-12-20T04:46:32;4.20;99.90
26707;DHT22;14319;49.422;10.934;2023-12-20T04:48:33;4.20;99.90
26707;DHT22;14319;49.422;10.934;2023-12-20T04:50:33;4.20;99.90
26707;DHT22;14319;49.422;10.934;2023-12-20T04:52:34;4.30;99.90
26707;DHT22;14319;49.422;10.934;2023-12-20T04:54:34;4.30;99.90
26707;DHT22;14319;49.422;10.934;2023-12-20T04:56:35;4.30;99.90
26707;DHT22;14319;49.422;10.934;2023-12-20T04:58:36;4.20;99.90
26707;DHT22;14319;49.422;10.934;2023-12-20T05:00:36;4.40;99.90
26707;DHT22;14319;49.422;10.934;2023-12-20T05:02:37;4.30;99.90
26707;DHT22;14319;49.422;10.934;2023-12-20T05:04:37;4.30;99.90
26707;DHT22;14319;49.422;10.934;2023-12-20T05:06:38;4.30;99.90
26707;DHT22;14319;49.422;10.934;2023-12-20T05:08:39;4.30;99.90
26707;DHT22;14319;49.422;10.934;2023-12-20T05:10:39;4.30;99.90
26707;DHT22;14319;49.422;10.934;2023-12-20T05:12:40;4.20;99.90
26707;DHT22;14319;49.422;10.934;2023-12-20T05:14:41;4.20;99.90
26707;DHT22;14319;49.422;10.934;2023-12-20T05:16:41;4.20;99.90
26707;DHT22;14319;49.422;10.934;2023-12-20T05:18:42;4.30;99.90
26707;DHT22;14319;49.422;10.934;2023-12-20T05:20:42;4.30;99.90
26707;DHT22;14319;49.422;10.934;2023-12-20T05:22:43;4.20;99.90
26707;DHT22;14319;49.422;10.934;2023-12-20T05:24:48;4.10;99.90
26707;DHT22;14319;49.422;10.934;2023-12-20T05:26:48;4.20;99.90
26707;DHT22;14319;49.422;10.934;2023-12-20T05:28:49;4.30;99.90
26707;DHT22;14319;49.422;10.934;2023-12-20T05:30:50;4.30;99.90
26707;DHT22;14319;49.422;10.934;2023-12-20T05:32:53;4.20;99.90
26707;DHT22;14319;49.422;10.934;2023-12-20T05:34:54;4.30;99.90
26707;DHT22;14319;49.422;10.934;2023-12-20T05:36:54;4.30;99.90
26707;DHT22;14319;49.422;10.934;2023-12-20T05:38:55;4.10;99.90
26707;DHT22;14319;49.422;10.934;2023-12-20T05:40:56;4.10;99.90
26707;DHT22;14319;49.422;10.934;2023-12-20T05:42:56;4.20;99.90
26707;DHT22;14319;49.422;10.934;2023-12-20T05:44:57;4.10;99.90
26707;DHT22;14319;49.422;10.934;2023-12-20T05:46:57;4.00;99.90
26707;DHT22;14319;49.422;10.934;2023-12-20T05:48:58;4.20;99.90
26707;DHT22;14319;49.422;10.934;2023-12-20T05:50:59;4.30;99.90
26707;DHT22;14319;49.422;10.934;2023-12-20T05:53:00;4.30;99.90
26707;DHT22;14319;49.422;10.934;2023-12-20T05:55:00;4.40;99.90
26707;DHT22;14319;49.422;10.934;2023-12-20T05:57:04;4.40;99.90
26707;DHT22;14319;49.422;10.934;2023-12-20T05:59:04;4.30;99.90
26707;DHT22;14319;49.422;10.934;2023-12-20T06:01:05;4.40;99.90
26707;DHT22;14319;49.422;10.934;2023-12-20T06:03:06;4.20;99.90
26707;DHT22;14319;49.422;10.934;2023-12-20T06:05:07;4.30;99.90
26707;DHT22;14319;49.422;10.934;2023-12-20T06:07:07;4.20;99.90
26707;DHT22;14319;49.422;10.934;2023-12-20T06:09:09;4.10;99.90
26707;DHT22;14319;49.422;10.934;2023-12-20T06:11:10;4.20;99.90
26707;DHT22;14319;49.422;10.934;2023-12-20T06:13:10;4.30;99.90
26707;DHT22;14319;49.422;10.934;2023-12-20T06:15:13;4.20;99.90
26707;DHT22;14319;49.422;10.934;2023-12-20T06:17:14;4.30;99.90
26707;DHT22;14319;49.422;10.934;2023-12-20T06:19:14;4.30;99.90
26707;DHT22;14319;49.422;10.934;2023-12-20T06:21:15;4.30;99.90
26707;DHT22;14319;49.422;10.934;2023-12-20T06:23:15;4.20;99.90
26707;DHT22;14319;49.422;10.934;2023-12-20T06:25:16;4.20;99.90
26707;DHT22;14319;49.422;10.934;2023-12-20T06:27:17;4.30;99.90
26707;DHT22;14319;49.422;10.934;2023-12-20T06:29:18;4.20;99.90
26707;DHT22;14319;49.422;10.934;2023-12-20T06:31:18;4.20;99.90
26707;DHT22;14319;49.422;10.934;2023-12-20T06:33:19;4.40;99.90
26707;DHT22;14319;49.422;10.934;2023-12-20T06:35:21;4.30;99.90
26707;DHT22;14319;49.422;10.934;2023-12-20T06:37:22;4.50;99.90
26707;DHT22;14319;49.422;10.934;2023-12-20T06:39:22;4.30;99.90
26707;DHT22;14319;49.422;10.934;2023-12-20T06:41:23;4.30;99.90
26707;DHT22;14319;49.422;10.934;2023-12-20T06:43:24;4.40;99.90
26707;DHT22;14319;49.422;10.934;2023-12-20T06:45:25;4.40;99.90
26707;DHT22;14319;49.422;10.934;2023-12-20T06:47:26;4.40;99.90
26707;DHT22;14319;49.422;10.934;2023-12-20T06:49:26;4.40;99.90
26707;DHT22;14319;49.422;10.934;2023-12-20T06:51:30;4.40;99.90
26707;DHT22;14319;49.422;10.934;2023-12-20T06:53:31;4.50;99.90
26707;DHT22;14319;49.422;10.934;2023-12-20T06:55:31;4.50;99.90
26707;DHT22;14319;49.422;10.934;2023-12-20T06:57:32;4.70;99.90
26707;DHT22;14319;49.422;10.934;2023-12-20T06:59:32;4.40;99.90
26707;DHT22;14319;49.422;10.934;2023-12-20T07:01:33;4.30;99.90
26707;DHT22;14319;49.422;10.934;2023-12-20T07:03:34;4.30;99.90
26707;DHT22;14319;49.422;10.934;2023-12-20T07:05:34;4.30;99.90
26707;DHT22;14319;49.422;10.934;2023-12-20T07:07:35;4.30;99.90
26707;DHT22;14319;49.422;10.934;2023-12-20T07:09:35;4.30;99.90
26707;DHT22;14319;49.422;10.934;2023-12-20T07:11:36;4.30;99.90
26707;DHT22;14319;49.422;10.934;2023-12-20T07:13:37;4.30;99.90
26707;DHT22;14319;49.422;10.934;2023-12-20T07:15:37;4.30;99.90
26707;DHT22;14319;49.422;10.934;2023-12-20T07:17:38;4.30;99.90
26707;DHT22;14319;49.422;10.934;2023-12-20T07:19:39;4.30;99.90
26707;DHT22;14319;49.422;10.934;2023-12-20T07:21:39;4.40;99.90
26707;DHT22;14319;49.422;10.934;2023-12-20T07:23:40;4.40;99.90
26707;DHT22;14319;49.422;10.934;2023-12-20T07:25:41;4.40;99.90
26707;DHT22;14319;49.422;10.934;2023-12-20T07:27:41;4.40;99.90
26707;DHT22;14319;49.422;10.934;2023-12-20T07:29:42;4.40;99.90
26707;DHT22;14319;49.422;10.934;2023-12-20T07:31:42;4.40;99.90
26707;DHT22;14319;49.422;10.934;2023-12-20T07:33:43;4.40;99.90
26707;DHT22;14319;49.422;10.934;2023-12-20T07:35:44;4.40;99.90
26707;DHT22;14319;49.422;10.934;2023-12-20T07:37:45;4.50;99.90
26707;DHT22;14319;49.422;10.934;2023-12-20T07:39:46;4.50;99.90
26707;DHT22;14319;49.422;10.934;2023-12-20T07:41:46;4.50;99.90
26707;DHT22;14319;49.422;10.934;2023-12-20T07:43:47;4.60;99.90
26707;DHT22;14319;49.422;10.934;2023-12-20T07:45:47;4.50;99.90
26707;DHT22;14319;49.422;10.934;2023-12-20T07:47:48;4.40;99.90
26707;DHT22;14319;49.422;10.934;2023-12-20T07:49:53;4.40;99.90
26707;DHT22;14319;49.422;10.934;2023-12-20T07:51:54;4.50;99.90
26707;DHT22;14319;49.422;10.934;2023-12-20T07:53:54;4.50;99.90
26707;DHT22;14319;49.422;10.934;2023-12-20T07:55:55;4.70;99.90
26707;DHT22;14319;49.422;10.934;2023-12-20T07:57:55;4.70;99.90
26707;DHT22;14319;49.422;10.934;2023-12-20T07:59:56;4.80;99.90
26707;DHT22;14319;49.422;10.934;2023-12-20T08:01:57;4.90;99.90
26707;DHT22;14319;49.422;10.934;2023-12-20T08:03:57;4.90;99.90
26707;DHT22;14319;49.422;10.934;2023-12-20T08:05:58;4.80;99.90
26707;DHT22;14319;49.422;10.934;2023-12-20T08:07:59;4.80;99.90
26707;DHT22;14319;49.422;10.934;2023-12-20T08:10:00;4.80;99.90
26707;DHT22;14319;49.422;10.934;2023-12-20T08:12:01;4.80;99.90
26707;DHT22;14319;49.422;10.934;2023-12-20T08:14:04;4.80;99.90
26707;DHT22;14319;49.422;10.934;2023-12-20T08:16:05;4.90;99.90
26707;DHT22;14319;49.422;10.934;2023-12-20T08:18:06;4.90;99.90
26707;DHT22;14319;49.422;10.934;2023-12-20T08:20:07;4.90;99.90
26707;DHT22;14319;49.422;10.934;2023-12-20T08:22:07;5.00;99.90
26707;DHT22;14319;49.422;10.934;2023-12-20T08:24:08;4.90;99.90
26707;DHT22;14319;49.422;10.934;2023-12-20T08:26:09;5.00;99.90
26707;DHT22;14319;49.422;10.934;2023-12-20T08:28:09;4.90;99.90
26707;DHT22;14319;49.422;10.934;2023-12-20T08:30:10;4.90;99.90
26707;DHT22;14319;49.422;10.934;2023-12-20T08:32:11;5.00;99.90
26707;DHT22;14319;49.422;10.934;2023-12-20T08:34:11;4.90;99.90
26707;DHT22;14319;49.422;10.934;2023-12-20T08:36:15;4.90;99.90
26707;DHT22;14319;49.422;10.934;2023-12-20T08:38:17;4.90;99.90
26707;DHT22;14319;49.422;10.934;2023-12-20T08:40:18;4.90;99.90
26707;DHT22;14319;49.422;10.934;2023-12-20T08:42:19;5.00;99.90
26707;DHT22;14319;49.422;10.934;2023-12-20T08:44:20;5.00;99.10
26707;DHT22;14319;49.422;10.934;2023-12-20T08:46:22;5.00;98.90
26707;DHT22;14319;49.422;10.934;2023-12-20T08:48:23;5.00;98.20
26707;DHT22;14319;49.422;10.934;2023-12-20T08:50:23;5.00;98.10
26707;DHT22;14319;49.422;10.934;2023-12-20T08:52:26;4.90;98.60
26707;DHT22;14319;49.422;10.934;2023-12-20T08:54:27;5.00;99.70
26707;DHT22;14319;49.422;10.934;2023-12-20T08:56:28;5.10;99.90
26707;DHT22;14319;49.422;10.934;2023-12-20T08:58:28;5.10;98.50
26707;DHT22;14319;49.422;10.934;2023-12-20T09:00:29;5.30;95.00
26707;DHT22;14319;49.422;10.934;2023-12-20T09:02:30;5.20;95.60
26707;DHT22;14319;49.422;10.934;2023-12-20T09:04:30;5.10;96.50
26707;DHT22;14319;49.422;10.934;2023-12-20T09:06:31;5.10;94.60
26707;DHT22;14319;49.422;10.934;2023-12-20T09:08:31;5.20;95.70
26707;DHT22;14319;49.422;10.934;2023-12-20T09:10:32;5.20;95.60
26707;DHT22;14319;49.422;10.934;2023-12-20T09:12:33;5.10;96.10
26707;DHT22;14319;49.422;10.934;2023-12-20T09:14:33;5.30;95.70
26707;DHT22;14319;49.422;10.934;2023-12-20T09:16:34;5.10;94.50
26707;DHT22;14319;49.422;10.934;2023-12-20T09:18:35;5.00;95.90
26707;DHT22;14319;49.422;10.934;2023-12-20T09:20:36;5.00;96.10
26707;DHT22;14319;49.422;10.934;2023-12-20T09:22:36;5.00;95.70
26707;DHT22;14319;49.422;10.934;2023-12-20T09:24:38;5.00;95.80
26707;DHT22;14319;49.422;10.934;2023-12-20T09:26:39;5.00;94.20
26707;DHT22;14319;49.422;10.934;2023-12-20T09:28:40;5.00;94.20
26707;DHT22;14319;49.422;10.934;2023-12-20T09:30:40;5.00;94.90
26707;DHT22;14319;49.422;10.934;2023-12-20T09:32:41;5.20;93.80
26707;DHT22;14319;49.422;10.934;2023-12-20T09:34:42;5.10;92.60
26707;DHT22;14319;49.422;10.934;2023-12-20T09:36:42;5.20;92.00
26707;DHT22;14319;49.422;10.934;2023-12-20T09:38:47;5.10;90.80
26707;DHT22;14319;49.422;10.934;2023-12-20T09:40:48;5.10;91.40
26707;DHT22;14319;49.422;10.934;2023-12-20T09:42:57;5.10;90.70
26707;DHT22;14319;49.422;10.934;2023-12-20T09:45:00;5.10;91.30
26707;DHT22;14319;49.422;10.934;2023-12-20T09:47:05;5.10;89.90
26707;DHT22;14319;49.422;10.934;2023-12-20T09:49:07;5.10;90.00
26707;DHT22;14319;49.422;10.934;2023-12-20T09:51:07;5.30;90.40
26707;DHT22;14319;49.422;10.934;2023-12-20T09:53:10;5.20;90.70
26707;DHT22;14319;49.422;10.934;2023-12-20T09:55:12;5.10;89.40
26707;DHT22;14319;49.422;10.934;2023-12-20T09:57:13;5.30;90.90
26707;DHT22;14319;49.422;10.934;2023-12-20T09:59:14;5.30;90.90
26707;DHT22;14319;49.422;10.934;2023-12-20T10:01:16;5.30;89.70
26707;DHT22;14319;49.422;10.934;2023-12-20T10:03:17;5.40;90.60
26707;DHT22;14319;49.422;10.934;2023-12-20T10:05:29;5.50;89.80
26707;DHT22;14319;49.422;10.934;2023-12-20T10:07:30;5.60;89.00
26707;DHT22;14319;49.422;10.934;2023-12-20T10:09:31;5.60;88.30
26707;DHT22;14319;49.422;10.934;2023-12-20T10:11:35;5.70;89.50
26707;DHT22;14319;49.422;10.934;2023-12-20T10:13:39;5.80;87.70
26707;DHT22;14319;49.422;10.934;2023-12-20T10:15:41;5.80;88.00
26707;DHT22;14319;49.422;10.934;2023-12-20T10:17:41;5.70;85.90
26707;DHT22;14319;49.422;10.934;2023-12-20T10:19:43;5.60;86.50
26707;DHT22;14319;49.422;10.934;2023-12-20T10:21:43;5.60;86.60
26707;DHT22;14319;49.422;10.934;2023-12-20T10:23:45;5.70;87.40
26707;DHT22;14319;49.422;10.934;2023-12-20T10:25:59;5.70;87.40
26707;DHT22;14319;49.422;10.934;2023-12-20T10:28:13;5.60;85.70
26707;DHT22;14319;49.422;10.934;2023-12-20T10:30:14;5.60;86.40
26707;DHT22;14319;49.422;10.934;2023-12-20T10:32:26;5.60;87.10
26707;DHT22;14319;49.422;10.934;2023-12-20T10:34:27;5.70;88.50
26707;DHT22;14319;49.422;10.934;2023-12-20T10:36:32;5.70;87.40
26707;DHT22;14319;49.422;10.934;2023-12-20T10:38:34;5.80;88.10
26707;DHT22;14319;49.422;10.934;2023-12-20T10:40:36;5.90;87.70
26707;DHT22;14319;49.422;10.934;2023-12-20T10:42:37;5.80;86.00
26707;DHT22;14319;49.422;10.934;2023-12-20T10:44:39;5.80;85.90
26707;DHT22;14319;49.422;10.934;2023-12-20T10:46:40;5.80;86.40
26707;DHT22;14319;49.422;10.934;2023-12-20T10:48:41;5.80;85.90
26707;DHT22;14319;49.422;10.934;2023-12-20T10:50:43;5.80;87.00
26707;DHT22;14319;49.422;10.934;2023-12-20T10:52:45;5.80;86.60
26707;DHT22;14319;49.422;10.934;2023-12-20T10:54:47;5.90;86.70
26707;DHT22;14319;49.422;10.934;2023-12-20T10:56:48;5.90;87.30
26707;DHT22;14319;49.422;10.934;2023-12-20T10:58:52;5.80;86.60
26707;DHT22;14319;49.422;10.934;2023-12-20T11:01:00;5.70;84.80
26707;DHT22;14319;49.422;10.934;2023-12-20T11:03:05;5.70;85.80
26707;DHT22;14319;49.422;10.934;2023-12-20T11:06:09;5.70;85.10
26707;DHT22;14319;49.422;10.934;2023-12-20T11:07:48;5.80;86.50
26707;DHT22;14319;49.422;10.934;2023-12-20T11:10:00;5.70;86.10
26707;DHT22;14319;49.422;10.934;2023-12-20T11:14:16;5.80;88.50
26707;DHT22;14319;49.422;10.934;2023-12-20T11:16:19;5.80;86.00
26707;DHT22;14319;49.422;10.934;2023-12-20T11:18:19;5.70;86.50
26707;DHT22;14319;49.422;10.934;2023-12-20T11:20:24;5.80;88.00
26707;DHT22;14319;49.422;10.934;2023-12-20T11:22:35;5.80;87.90
26707;DHT22;14319;49.422;10.934;2023-12-20T11:24:35;5.70;86.60
26707;DHT22;14319;49.422;10.934;2023-12-20T11:26:46;5.60;87.80
26707;DHT22;14319;49.422;10.934;2023-12-20T11:28:47;5.70;89.60
26707;DHT22;14319;49.422;10.934;2023-12-20T11:32:51;5.60;88.60
26707;DHT22;14319;49.422;10.934;2023-12-20T11:34:53;5.60;88.70
26707;DHT22;14319;49.422;10.934;2023-12-20T11:36:58;5.70;89.70
26707;DHT22;14319;49.422;10.934;2023-12-20T11:38:59;5.60;90.70
26707;DHT22;14319;49.422;10.934;2023-12-20T11:41:00;5.70;89.00
26707;DHT22;14319;49.422;10.934;2023-12-20T11:43:04;5.80;88.60
26707;DHT22;14319;49.422;10.934;2023-12-20T11:45:13;5.70;88.40
26707;DHT22;14319;49.422;10.934;2023-12-20T11:47:15;5.70;89.70
26707;DHT22;14319;49.422;10.934;2023-12-20T11:49:16;5.70;89.10
26707;DHT22;14319;49.422;10.934;2023-12-20T11:51:16;5.60;88.20
26707;DHT22;14319;49.422;10.934;2023-12-20T11:53:17;5.60;87.60
26707;DHT22;14319;49.422;10.934;2023-12-20T11:55:19;5.60;89.00
26707;DHT22;14319;49.422;10.934;2023-12-20T11:57:20;5.60;87.80
26707;DHT22;14319;49.422;10.934;2023-12-20T11:59:21;5.70;90.00
26707;DHT22;14319;49.422;10.934;2023-12-20T12:01:21;5.60;88.30
26707;DHT22;14319;49.422;10.934;2023-12-20T12:03:22;5.50;87.70
26707;DHT22;14319;49.422;10.934;2023-12-20T12:05:24;5.60;89.90
26707;DHT22;14319;49.422;10.934;2023-12-20T12:07:27;5.60;88.10
26707;DHT22;14319;49.422;10.934;2023-12-20T12:09:28;5.60;87.30
26707;DHT22;14319;49.422;10.934;2023-12-20T12:11:29;5.50;87.80
26707;DHT22;14319;49.422;10.934;2023-12-20T12:13:29;5.50;87.40
26707;DHT22;14319;49.422;10.934;2023-12-20T12:15:30;5.60;87.50
26707;DHT22;14319;49.422;10.934;2023-12-20T12:17:31;5.60;87.00
26707;DHT22;14319;49.422;10.934;2023-12-20T12:19:31;5.70;86.70
26707;DHT22;14319;49.422;10.934;2023-12-20T12:21:36;5.60;86.40
26707;DHT22;14319;49.422;10.934;2023-12-20T12:23:36;5.70;87.00
26707;DHT22;14319;49.422;10.934;2023-12-20T12:25:37;5.70;87.10
26707;DHT22;14319;49.422;10.934;2023-12-20T12:27:40;5.70;87.60
26707;DHT22;14319;49.422;10.934;2023-12-20T12:29:41;5.80;88.50
26707;DHT22;14319;49.422;10.934;2023-12-20T12:32:00;5.80;87.40
26707;DHT22;14319;49.422;10.934;2023-12-20T12:34:01;5.80;87.80
26707;DHT22;14319;49.422;10.934;2023-12-20T12:36:01;5.70;89.00
26707;DHT22;14319;49.422;10.934;2023-12-20T12:38:04;5.80;89.00
26707;DHT22;14319;49.422;10.934;2023-12-20T12:40:10;5.80;87.20
26707;DHT22;14319;49.422;10.934;2023-12-20T12:42:11;5.80;87.40
26707;DHT22;14319;49.422;10.934;2023-12-20T12:44:11;5.70;87.40
26707;DHT22;14319;49.422;10.934;2023-12-20T12:46:12;5.60;87.70
26707;DHT22;14319;49.422;10.934;2023-12-20T12:48:13;5.70;88.20
26707;DHT22;14319;49.422;10.934;2023-12-20T12:50:14;5.70;86.50